sensor_id;sensor_type;location;lat;lon;timestamp;temperature;humidity
55213;DHT22;41083;52.932;6.674;2022-10-16T00:01:27;12.40;99.90
55213;DHT22;41083;52.932;6.674;2022-10-16T00:03:53;12.40;99.90
55213;DHT22;41083;52.932;6.674;2022-10-16T00:06:20;12.40;99.90
55213;DHT22;41083;52.932;6.674;2022-10-16T00:08:47;12.40;99.90
55213;DHT22;41083;52.932;6.674;2022-10-16T00:13:41;12.40;99.90
55213;DHT22;41083;52.932;6.674;2022-10-16T00:16:08;12.50;99.90
55213;DHT22;41083;52.932;6.674;2022-10-16T00:18:35;12.50;99.90
55213;DHT22;41083;52.932;6.674;2022-10-16T00:21:22;12.50;99.90
55213;DHT22;41083;52.932;6.674;2022-10-16T00:24:04;12.40;99.90
55213;DHT22;41083;52.932;6.674;2022-10-16T00:26:31;12.50;99.90
55213;DHT22;41083;52.932;6.674;2022-10-16T00:28:57;12.50;99.90
55213;DHT22;41083;52.932;6.674;2022-10-16T00:31:24;12.50;99.90
55213;DHT22;41083;52.932;6.674;2022-10-16T00:33:50;12.50;99.90
55213;DHT22;41083;52.932;6.674;2022-10-16T00:36:19;12.50;99.90
55213;DHT22;41083;52.932;6.674;2022-10-16T00:38:45;12.50;99.90
55213;DHT22;41083;52.932;6.674;2022-10-16T00:41:14;12.50;99.90
55213;DHT22;41083;52.932;6.674;2022-10-16T00:43:46;12.50;99.90
55213;DHT22;41083;52.932;6.674;2022-10-16T00:46:19;12.40;99.90
55213;DHT22;41083;52.932;6.674;2022-10-16T00:51:52;12.50;99.90
55213;DHT22;41083;52.932;6.674;2022-10-16T00:54:27;12.40;99.90
55213;DHT22;41083;52.932;6.674;2022-10-16T00:56:54;12.40;99.90
55213;DHT22;41083;52.932;6.674;2022-10-16T00:59:24;12.40;99.90
55213;DHT22;41083;52.932;6.674;2022-10-16T01:01:51;12.40;99.90
55213;DHT22;41083;52.932;6.674;2022-10-16T01:04:17;12.40;99.90
55213;DHT22;41083;52.932;6.674;2022-10-16T01:07:01;12.40;99.90
55213;DHT22;41083;52.932;6.674;2022-10-16T01:09:37;12.40;99.90
55213;DHT22;41083;52.932;6.674;2022-10-16T01:12:12;12.40;99.90
55213;DHT22;41083;52.932;6.674;2022-10-16T01:14:53;12.40;99.90
55213;DHT22;41083;52.932;6.674;2022-10-16T01:20:17;12.40;99.90
55213;DHT22;41083;52.932;6.674;2022-10-16T01:23:21;12.40;99.90
55213;DHT22;41083;52.932;6.674;2022-10-16T01:26:23;12.40;99.90
55213;DHT22;41083;52.932;6.674;2022-10-16T01:28:55;12.50;99.90
55213;DHT22;41083;52.932;6.674;2022-10-16T01:31:25;12.40;99.90
55213;DHT22;41083;52.932;6.674;2022-10-16T01:33:57;12.50;99.90
55213;DHT22;41083;52.932;6.674;2022-10-16T01:36:35;12.50;99.90
55213;DHT22;41083;52.932;6.674;2022-10-16T01:39:03;12.50;99.90
55213;DHT22;41083;52.932;6.674;2022-10-16T01:41:33;12.50;99.90
55213;DHT22;41083;52.932;6.674;2022-10-16T01:46:31;12.50;99.90
55213;DHT22;41083;52.932;6.674;2022-10-16T01:48:58;12.50;99.90
55213;DHT22;41083;52.932;6.674;2022-10-16T01:51:25;12.50;99.90
55213;DHT22;41083;52.932;6.674;2022-10-16T01:53:57;12.50;99.90
55213;DHT22;41083;52.932;6.674;2022-10-16T01:56:25;12.50;99.90
55213;DHT22;41083;52.932;6.674;2022-10-16T01:58:58;12.50;99.90
55213;DHT22;41083;52.932;6.674;2022-10-16T02:01:29;12.50;99.90
55213;DHT22;41083;52.932;6.674;2022-10-16T02:03:58;12.60;99.90
55213;DHT22;41083;52.932;6.674;2022-10-16T02:06:25;12.60;99.90
55213;DHT22;41083;52.932;6.674;2022-10-16T02:08:51;12.60;99.90
55213;DHT22;41083;52.932;6.674;2022-10-16T02:11:16;12.60;99.90
55213;DHT22;41083;52.932;6.674;2022-10-16T02:13:46;12.60;99.90
55213;DHT22;41083;52.932;6.674;2022-10-16T02:16:14;12.50;99.90
55213;DHT22;41083;52.932;6.674;2022-10-16T02:18:41;12.60;99.90
55213;DHT22;41083;52.932;6.674;2022-10-16T02:21:23;12.50;99.90
55213;DHT22;41083;52.932;6.674;2022-10-16T02:24:21;12.50;99.90
55213;DHT22;41083;52.932;6.674;2022-10-16T02:29:39;12.50;99.90
55213;DHT22;41083;52.932;6.674;2022-10-16T02:32:07;12.50;99.90
55213;DHT22;41083;52.932;6.674;2022-10-16T02:34:34;12.50;99.90
55213;DHT22;41083;52.932;6.674;2022-10-16T02:37:04;12.50;99.90
55213;DHT22;41083;52.932;6.674;2022-10-16T02:39:31;12.50;99.90
55213;DHT22;41083;52.932;6.674;2022-10-16T02:41:56;12.60;99.90
55213;DHT22;41083;52.932;6.674;2022-10-16T02:44:22;12.60;99.90
55213;DHT22;41083;52.932;6.674;2022-10-16T02:46:48;12.60;99.90
55213;DHT22;41083;52.932;6.674;2022-10-16T02:49:13;12.60;99.90
55213;DHT22;41083;52.932;6.674;2022-10-16T02:51:39;12.60;99.90
55213;DHT22;41083;52.932;6.674;2022-10-16T02:54:04;12.60;99.90
55213;DHT22;41083;52.932;6.674;2022-10-16T02:56:30;12.60;99.90
55213;DHT22;41083;52.932;6.674;2022-10-16T02:58:56;12.60;99.90
55213;DHT22;41083;52.932;6.674;2022-10-16T03:01:22;12.60;99.90
55213;DHT22;41083;52.932;6.674;2022-10-16T03:03:49;12.70;99.90
55213;DHT22;41083;52.932;6.674;2022-10-16T03:06:15;12.70;99.90
55213;DHT22;41083;52.932;6.674;2022-10-16T03:08:40;12.60;99.90
55213;DHT22;41083;52.932;6.674;2022-10-16T03:11:06;12.60;99.90
55213;DHT22;41083;52.932;6.674;2022-10-16T03:13:31;12.70;99.90
55213;DHT22;41083;52.932;6.674;2022-10-16T03:15:57;12.70;99.90
55213;DHT22;41083;52.932;6.674;2022-10-16T03:18:23;12.70;99.90
55213;DHT22;41083;52.932;6.674;2022-10-16T03:20:48;12.70;99.90
55213;DHT22;41083;52.932;6.674;2022-10-16T03:23:14;12.70;99.90
55213;DHT22;41083;52.932;6.674;2022-10-16T03:25:40;12.70;99.90
55213;DHT22;41083;52.932;6.674;2022-10-16T03:28:05;12.70;99.90
55213;DHT22;41083;52.932;6.674;2022-10-16T03:30:31;12.70;99.90
55213;DHT22;41083;52.932;6.674;2022-10-16T03:32:57;12.70;99.90
55213;DHT22;41083;52.932;6.674;2022-10-16T03:35:23;12.70;99.90
55213;DHT22;41083;52.932;6.674;2022-10-16T03:37:49;12.70;99.90
55213;DHT22;41083;52.932;6.674;2022-10-16T03:40:16;12.70;99.90
55213;DHT22;41083;52.932;6.674;2022-10-16T03:42:45;12.70;99.90
55213;DHT22;41083;52.932;6.674;2022-10-16T03:45:11;12.70;99.90
55213;DHT22;41083;52.932;6.674;2022-10-16T03:47:36;12.80;99.90
55213;DHT22;41083;52.932;6.674;2022-10-16T03:50:03;12.70;99.90
55213;DHT22;41083;52.932;6.674;2022-10-16T03:52:29;12.80;99.90
55213;DHT22;41083;52.932;6.674;2022-10-16T03:54:55;12.80;99.90
55213;DHT22;41083;52.932;6.674;2022-10-16T03:57:21;12.80;99.90
55213;DHT22;41083;52.932;6.674;2022-10-16T03:59:46;12.80;99.90
55213;DHT22;41083;52.932;6.674;2022-10-16T04:02:12;12.70;99.90
55213;DHT22;41083;52.932;6.674;2022-10-16T04:04:38;12.70;99.90
55213;DHT22;41083;52.932;6.674;2022-10-16T04:07:04;12.70;99.90
55213;DHT22;41083;52.932;6.674;2022-10-16T04:09:29;12.70;99.90
55213;DHT22;41083;52.932;6.674;2022-10-16T04:11:55;12.70;99.90
55213;DHT22;41083;52.932;6.674;2022-10-16T04:14:20;12.70;99.90
55213;DHT22;41083;52.932;6.674;2022-10-16T04:16:46;12.60;99.90
55213;DHT22;41083;52.932;6.674;2022-10-16T04:19:12;12.60;99.90
55213;DHT22;41083;52.932;6.674;2022-10-16T04:21:37;12.60;99.90
55213;DHT22;41083;52.932;6.674;2022-10-16T04:24:03;12.60;99.90
55213;DHT22;41083;52.932;6.674;2022-10-16T04:26:29;12.60;99.90
55213;DHT22;41083;52.932;6.674;2022-10-16T04:28:54;12.60;99.90
55213;DHT22;41083;52.932;6.674;2022-10-16T04:31:21;12.60;99.90
55213;DHT22;41083;52.932;6.674;2022-10-16T04:33:46;12.60;99.90
55213;DHT22;41083;52.932;6.674;2022-10-16T04:36:12;12.60;99.90
55213;DHT22;41083;52.932;6.674;2022-10-16T04:38:38;12.60;99.90
55213;DHT22;41083;52.932;6.674;2022-10-16T04:41:07;12.60;99.90
55213;DHT22;41083;52.932;6.674;2022-10-16T04:43:33;12.60;99.90
55213;DHT22;41083;52.932;6.674;2022-10-16T04:45:59;12.60;99.90
55213;DHT22;41083;52.932;6.674;2022-10-16T04:48:25;12.50;99.90
55213;DHT22;41083;52.932;6.674;2022-10-16T04:50:50;12.50;99.90
55213;DHT22;41083;52.932;6.674;2022-10-16T04:53:16;12.50;99.90
55213;DHT22;41083;52.932;6.674;2022-10-16T04:55:42;12.50;99.90
55213;DHT22;41083;52.932;6.674;2022-10-16T04:58:08;12.50;99.90
55213;DHT22;41083;52.932;6.674;2022-10-16T05:00:35;12.50;99.90
55213;DHT22;41083;52.932;6.674;2022-10-16T05:03:00;12.50;99.90
55213;DHT22;41083;52.932;6.674;2022-10-16T05:05:27;12.50;99.90
55213;DHT22;41083;52.932;6.674;2022-10-16T05:07:53;12.60;99.90
55213;DHT22;41083;52.932;6.674;2022-10-16T05:10:19;12.60;99.90
55213;DHT22;41083;52.932;6.674;2022-10-16T05:12:45;12.60;99.90
55213;DHT22;41083;52.932;6.674;2022-10-16T05:15:11;12.60;99.90
55213;DHT22;41083;52.932;6.674;2022-10-16T05:17:36;12.60;99.90
55213;DHT22;41083;52.932;6.674;2022-10-16T05:20:02;12.60;99.90
55213;DHT22;41083;52.932;6.674;2022-10-16T05:22:28;12.60;99.90
55213;DHT22;41083;52.932;6.674;2022-10-16T05:24:54;12.60;99.90
55213;DHT22;41083;52.932;6.674;2022-10-16T05:27:20;12.60;99.90
55213;DHT22;41083;52.932;6.674;2022-10-16T05:29:46;12.60;99.90
55213;DHT22;41083;52.932;6.674;2022-10-16T05:32:13;12.60;99.90
55213;DHT22;41083;52.932;6.674;2022-10-16T05:34:38;12.60;99.90
55213;DHT22;41083;52.932;6.674;2022-10-16T05:37:05;12.60;99.90
55213;DHT22;41083;52.932;6.674;2022-10-16T05:39:30;12.60;99.90
55213;DHT22;41083;52.932;6.674;2022-10-16T05:41:56;12.60;99.90
55213;DHT22;41083;52.932;6.674;2022-10-16T05:44:22;12.60;99.90
55213;DHT22;41083;52.932;6.674;2022-10-16T05:46:47;12.60;99.90
55213;DHT22;41083;52.932;6.674;2022-10-16T05:49:13;12.60;99.90
55213;DHT22;41083;52.932;6.674;2022-10-16T05:51:38;12.70;99.90
55213;DHT22;41083;52.932;6.674;2022-10-16T05:54:04;12.70;99.90
55213;DHT22;41083;52.932;6.674;2022-10-16T05:56:29;12.70;99.90
55213;DHT22;41083;52.932;6.674;2022-10-16T05:58:55;12.70;99.90
55213;DHT22;41083;52.932;6.674;2022-10-16T06:01:21;12.60;99.90
55213;DHT22;41083;52.932;6.674;2022-10-16T06:03:50;12.70;99.90
55213;DHT22;41083;52.932;6.674;2022-10-16T06:06:27;12.70;99.90
55213;DHT22;41083;52.932;6.674;2022-10-16T06:08:54;12.70;99.90
55213;DHT22;41083;52.932;6.674;2022-10-16T06:11:22;12.70;99.90
55213;DHT22;41083;52.932;6.674;2022-10-16T06:13:53;12.70;99.90
55213;DHT22;41083;52.932;6.674;2022-10-16T06:16:20;12.70;99.90
55213;DHT22;41083;52.932;6.674;2022-10-16T06:18:46;12.70;99.90
55213;DHT22;41083;52.932;6.674;2022-10-16T06:21:14;12.70;99.90
55213;DHT22;41083;52.932;6.674;2022-10-16T06:23:41;12.70;99.90
55213;DHT22;41083;52.932;6.674;2022-10-16T06:26:09;12.70;99.90
55213;DHT22;41083;52.932;6.674;2022-10-16T06:28:35;12.70;99.90
55213;DHT22;41083;52.932;6.674;2022-10-16T06:31:02;12.70;99.90
55213;DHT22;41083;52.932;6.674;2022-10-16T06:33:28;12.70;99.90
55213;DHT22;41083;52.932;6.674;2022-10-16T06:35:53;12.70;99.90
55213;DHT22;41083;52.932;6.674;2022-10-16T06:38:19;12.70;99.90
55213;DHT22;41083;52.932;6.674;2022-10-16T06:40:44;12.70;99.90
55213;DHT22;41083;52.932;6.674;2022-10-16T06:43:10;12.70;99.90
55213;DHT22;41083;52.932;6.674;2022-10-16T06:45:36;12.70;99.90
55213;DHT22;41083;52.932;6.674;2022-10-16T06:48:01;12.70;99.90
55213;DHT22;41083;52.932;6.674;2022-10-16T06:50:27;12.80;99.90
55213;DHT22;41083;52.932;6.674;2022-10-16T06:52:52;12.70;99.90
55213;DHT22;41083;52.932;6.674;2022-10-16T06:55:18;12.80;99.90
55213;DHT22;41083;52.932;6.674;2022-10-16T06:57:44;12.80;99.90
55213;DHT22;41083;52.932;6.674;2022-10-16T07:00:12;12.80;99.90
55213;DHT22;41083;52.932;6.674;2022-10-16T07:02:37;12.80;99.90
55213;DHT22;41083;52.932;6.674;2022-10-16T07:05:03;12.80;99.90
55213;DHT22;41083;52.932;6.674;2022-10-16T07:07:29;12.80;99.90
55213;DHT22;41083;52.932;6.674;2022-10-16T07:09:55;12.90;99.90
55213;DHT22;41083;52.932;6.674;2022-10-16T07:12:20;12.90;99.90
55213;DHT22;41083;52.932;6.674;2022-10-16T07:14:46;12.90;99.90
55213;DHT22;41083;52.932;6.674;2022-10-16T07:17:11;12.90;99.90
55213;DHT22;41083;52.932;6.674;2022-10-16T07:19:37;12.90;99.90
55213;DHT22;41083;52.932;6.674;2022-10-16T07:22:03;12.90;99.90
55213;DHT22;41083;52.932;6.674;2022-10-16T07:24:28;13.00;99.90
55213;DHT22;41083;52.932;6.674;2022-10-16T07:26:54;13.00;99.90
55213;DHT22;41083;52.932;6.674;2022-10-16T07:29:21;13.00;99.90
55213;DHT22;41083;52.932;6.674;2022-10-16T07:31:48;13.00;99.90
55213;DHT22;41083;52.932;6.674;2022-10-16T07:34:16;13.00;99.90
55213;DHT22;41083;52.932;6.674;2022-10-16T07:36:42;13.00;99.90
55213;DHT22;41083;52.932;6.674;2022-10-16T07:39:08;13.10;99.90
55213;DHT22;41083;52.932;6.674;2022-10-16T07:41:33;13.10;99.90
55213;DHT22;41083;52.932;6.674;2022-10-16T07:44:03;13.20;99.90
55213;DHT22;41083;52.932;6.674;2022-10-16T07:46:29;13.20;99.90
55213;DHT22;41083;52.932;6.674;2022-10-16T07:48:54;13.20;99.90
55213;DHT22;41083;52.932;6.674;2022-10-16T07:51:24;13.20;99.90
55213;DHT22;41083;52.932;6.674;2022-10-16T07:53:50;13.20;99.90
55213;DHT22;41083;52.932;6.674;2022-10-16T07:56:17;13.30;99.90
55213;DHT22;41083;52.932;6.674;2022-10-16T07:58:44;13.30;99.90
55213;DHT22;41083;52.932;6.674;2022-10-16T08:01:12;13.30;99.90
55213;DHT22;41083;52.932;6.674;2022-10-16T08:03:41;13.30;99.90
55213;DHT22;41083;52.932;6.674;2022-10-16T08:06:07;13.30;99.90
55213;DHT22;41083;52.932;6.674;2022-10-16T08:08:32;13.40;99.90
55213;DHT22;41083;52.932;6.674;2022-10-16T08:10:58;13.40;99.90
55213;DHT22;41083;52.932;6.674;2022-10-16T08:13:24;13.30;99.90
55213;DHT22;41083;52.932;6.674;2022-10-16T08:15:51;13.40;99.90
55213;DHT22;41083;52.932;6.674;2022-10-16T08:18:18;13.50;99.90
55213;DHT22;41083;52.932;6.674;2022-10-16T08:20:44;13.50;99.90
55213;DHT22;41083;52.932;6.674;2022-10-16T08:23:11;13.50;99.90
55213;DHT22;41083;52.932;6.674;2022-10-16T08:25:38;13.50;99.90
55213;DHT22;41083;52.932;6.674;2022-10-16T08:28:08;13.50;99.90
55213;DHT22;41083;52.932;6.674;2022-10-16T08:30:35;13.60;99.90
55213;DHT22;41083;52.932;6.674;2022-10-16T08:33:01;13.60;99.90
55213;DHT22;41083;52.932;6.674;2022-10-16T08:35:27;13.60;99.90
55213;DHT22;41083;52.932;6.674;2022-10-16T08:37:52;13.60;99.90
55213;DHT22;41083;52.932;6.674;2022-10-16T08:40:29;13.60;99.90
55213;DHT22;41083;52.932;6.674;2022-10-16T08:45:55;13.70;99.90
55213;DHT22;41083;52.932;6.674;2022-10-16T08:48:50;13.70;99.90
55213;DHT22;41083;52.932;6.674;2022-10-16T08:51:24;13.80;99.90
55213;DHT22;41083;52.932;6.674;2022-10-16T08:53:55;13.80;99.90
55213;DHT22;41083;52.932;6.674;2022-10-16T08:56:22;13.90;99.90
55213;DHT22;41083;52.932;6.674;2022-10-16T08:58:48;14.00;99.90
55213;DHT22;41083;52.932;6.674;2022-10-16T09:01:16;14.00;99.90
55213;DHT22;41083;52.932;6.674;2022-10-16T09:06:41;14.10;99.90
55213;DHT22;41083;52.932;6.674;2022-10-16T09:09:54;14.10;99.90
55213;DHT22;41083;52.932;6.674;2022-10-16T09:12:21;14.10;99.90
55213;DHT22;41083;52.932;6.674;2022-10-16T09:15:29;14.10;99.90
55213;DHT22;41083;52.932;6.674;2022-10-16T09:20:51;14.20;99.90
55213;DHT22;41083;52.932;6.674;2022-10-16T09:23:26;14.20;99.90
55213;DHT22;41083;52.932;6.674;2022-10-16T09:25:54;14.30;99.90
55213;DHT22;41083;52.932;6.674;2022-10-16T09:28:20;14.30;99.90
55213;DHT22;41083;52.932;6.674;2022-10-16T09:30:46;14.40;99.90
55213;DHT22;41083;52.932;6.674;2022-10-16T09:33:14;14.40;99.90
55213;DHT22;41083;52.932;6.674;2022-10-16T09:35:44;14.40;99.90
55213;DHT22;41083;52.932;6.674;2022-10-16T09:38:28;14.40;99.90
55213;DHT22;41083;52.932;6.674;2022-10-16T09:40:58;14.40;99.90
55213;DHT22;41083;52.932;6.674;2022-10-16T09:43:27;14.50;99.90
55213;DHT22;41083;52.932;6.674;2022-10-16T09:46:38;14.50;99.90
55213;DHT22;41083;52.932;6.674;2022-10-16T09:48:48;14.50;99.90
55213;DHT22;41083;52.932;6.674;2022-10-16T09:51:29;14.60;99.90
55213;DHT22;41083;52.932;6.674;2022-10-16T09:54:00;14.60;99.90
55213;DHT22;41083;52.932;6.674;2022-10-16T09:56:33;14.70;99.90
55213;DHT22;41083;52.932;6.674;2022-10-16T09:59:10;14.70;99.90
55213;DHT22;41083;52.932;6.674;2022-10-16T10:01:41;14.80;99.90
55213;DHT22;41083;52.932;6.674;2022-10-16T10:04:08;14.80;99.90
55213;DHT22;41083;52.932;6.674;2022-10-16T10:06:35;14.80;99.90
55213;DHT22;41083;52.932;6.674;2022-10-16T10:09:04;14.90;99.90
55213;DHT22;41083;52.932;6.674;2022-10-16T10:11:49;14.90;99.90
55213;DHT22;41083;52.932;6.674;2022-10-16T10:14:18;14.90;99.90
55213;DHT22;41083;52.932;6.674;2022-10-16T10:16:46;15.00;99.90
55213;DHT22;41083;52.932;6.674;2022-10-16T10:19:17;15.00;99.90
55213;DHT22;41083;52.932;6.674;2022-10-16T10:21:43;15.00;99.90
55213;DHT22;41083;52.932;6.674;2022-10-16T10:24:11;15.10;99.90
55213;DHT22;41083;52.932;6.674;2022-10-16T10:26:37;15.10;99.90
55213;DHT22;41083;52.932;6.674;2022-10-16T10:29:28;15.10;99.90
55213;DHT22;41083;52.932;6.674;2022-10-16T10:35:01;15.10;99.90
55213;DHT22;41083;52.932;6.674;2022-10-16T10:40:22;15.10;99.90
55213;DHT22;41083;52.932;6.674;2022-10-16T10:46:02;15.10;99.90
55213;DHT22;41083;52.932;6.674;2022-10-16T10:48:51;15.20;99.90
55213;DHT22;41083;52.932;6.674;2022-10-16T10:51:36;15.10;99.90
55213;DHT22;41083;52.932;6.674;2022-10-16T10:57:29;15.10;99.90
55213;DHT22;41083;52.932;6.674;2022-10-16T11:02:41;15.10;99.90
55213;DHT22;41083;52.932;6.674;2022-10-16T11:05:28;15.10;99.90
55213;DHT22;41083;52.932;6.674;2022-10-16T11:08:18;15.20;99.90
55213;DHT22;41083;52.932;6.674;2022-10-16T11:13:43;15.30;99.90
55213;DHT22;41083;52.932;6.674;2022-10-16T11:16:23;15.30;99.90
55213;DHT22;41083;52.932;6.674;2022-10-16T11:21:43;15.30;99.90
55213;DHT22;41083;52.932;6.674;2022-10-16T11:24:23;15.30;99.90
55213;DHT22;41083;52.932;6.674;2022-10-16T11:26:51;15.40;99.90
55213;DHT22;41083;52.932;6.674;2022-10-16T11:29:28;15.40;99.90
55213;DHT22;41083;52.932;6.674;2022-10-16T11:32:14;15.40;99.90
55213;DHT22;41083;52.932;6.674;2022-10-16T11:34:47;15.30;99.90
55213;DHT22;41083;52.932;6.674;2022-10-16T11:37:19;15.30;99.90
55213;DHT22;41083;52.932;6.674;2022-10-16T11:39:46;15.30;99.90
55213;DHT22;41083;52.932;6.674;2022-10-16T11:42:19;15.30;99.90
55213;DHT22;41083;52.932;6.674;2022-10-16T11:45:24;15.30;99.90
55213;DHT22;41083;52.932;6.674;2022-10-16T11:48:04;15.20;99.90
55213;DHT22;41083;52.932;6.674;2022-10-16T11:50:39;15.10;99.90
55213;DHT22;41083;52.932;6.674;2022-10-16T11:55:52;15.00;99.90
55213;DHT22;41083;52.932;6.674;2022-10-16T11:58:31;15.00;99.90
55213;DHT22;41083;52.932;6.674;2022-10-16T12:08:59;15.00;99.90
55213;DHT22;41083;52.932;6.674;2022-10-16T12:14:19;15.10;99.90
55213;DHT22;41083;52.932;6.674;2022-10-16T12:17:03;15.30;99.90
55213;DHT22;41083;52.932;6.674;2022-10-16T12:19:32;15.30;99.90
55213;DHT22;41083;52.932;6.674;2022-10-16T12:22:00;15.40;99.90
55213;DHT22;41083;52.932;6.674;2022-10-16T12:24:37;15.40;99.90
55213;DHT22;41083;52.932;6.674;2022-10-16T12:27:05;15.50;99.90
55213;DHT22;41083;52.932;6.674;2022-10-16T12:29:42;15.40;99.90
55213;DHT22;41083;52.932;6.674;2022-10-16T12:32:31;15.40;99.90
55213;DHT22;41083;52.932;6.674;2022-10-16T12:34:59;15.30;99.90
55213;DHT22;41083;52.932;6.674;2022-10-16T12:37:27;15.20;99.90
55213;DHT22;41083;52.932;6.674;2022-10-16T12:39:54;15.10;99.90
55213;DHT22;41083;52.932;6.674;2022-10-16T12:42:31;15.10;99.90
55213;DHT22;41083;52.932;6.674;2022-10-16T12:44:59;15.10;99.90
55213;DHT22;41083;52.932;6.674;2022-10-16T12:49:56;15.10;99.90
55213;DHT22;41083;52.932;6.674;2022-10-16T12:52:26;15.20;99.90
55213;DHT22;41083;52.932;6.674;2022-10-16T12:54:56;15.10;99.90
55213;DHT22;41083;52.932;6.674;2022-10-16T13:03:22;15.30;99.90
55213;DHT22;41083;52.932;6.674;2022-10-16T13:11:46;15.50;99.90
55213;DHT22;41083;52.932;6.674;2022-10-16T13:17:01;15.60;99.90
55213;DHT22;41083;52.932;6.674;2022-10-16T13:19:56;15.60;99.90
55213;DHT22;41083;52.932;6.674;2022-10-16T13:25:36;15.70;99.90
55213;DHT22;41083;52.932;6.674;2022-10-16T13:28:07;15.60;99.90
55213;DHT22;41083;52.932;6.674;2022-10-16T13:30:44;15.60;99.90
55213;DHT22;41083;52.932;6.674;2022-10-16T13:33:16;15.60;99.90
55213;DHT22;41083;52.932;6.674;2022-10-16T13:35:52;15.60;99.90
55213;DHT22;41083;52.932;6.674;2022-10-16T13:38:20;15.70;99.90
55213;DHT22;41083;52.932;6.674;2022-10-16T13:40:52;15.60;99.90
55213;DHT22;41083;52.932;6.674;2022-10-16T13:43:45;15.70;99.90
55213;DHT22;41083;52.932;6.674;2022-10-16T13:46:20;15.60;99.90
55213;DHT22;41083;52.932;6.674;2022-10-16T13:49:00;15.60;99.90
55213;DHT22;41083;52.932;6.674;2022-10-16T13:51:27;15.60;99.90
55213;DHT22;41083;52.932;6.674;2022-10-16T13:53:55;15.60;99.90
55213;DHT22;41083;52.932;6.674;2022-10-16T13:56:24;15.60;99.90
55213;DHT22;41083;52.932;6.674;2022-10-16T13:59:04;15.60;99.90
55213;DHT22;41083;52.932;6.674;2022-10-16T14:01:34;15.50;99.90
55213;DHT22;41083;52.932;6.674;2022-10-16T14:04:05;15.50;99.90
55213;DHT22;41083;52.932;6.674;2022-10-16T14:06:33;15.50;99.90
55213;DHT22;41083;52.932;6.674;2022-10-16T14:09:06;15.50;99.90
55213;DHT22;41083;52.932;6.674;2022-10-16T14:11:34;15.40;99.90
55213;DHT22;41083;52.932;6.674;2022-10-16T14:14:04;15.40;99.90
55213;DHT22;41083;52.932;6.674;2022-10-16T14:16:31;15.30;99.90
55213;DHT22;41083;52.932;6.674;2022-10-16T14:19:03;15.20;99.90
55213;DHT22;41083;52.932;6.674;2022-10-16T14:21:31;15.20;99.90
55213;DHT22;41083;52.932;6.674;2022-10-16T14:23:57;15.20;99.90
55213;DHT22;41083;52.932;6.674;2022-10-16T14:26:27;15.20;99.90
55213;DHT22;41083;52.932;6.674;2022-10-16T14:29:14;15.20;99.90
55213;DHT22;41083;52.932;6.674;2022-10-16T14:31:40;15.10;99.90
55213;DHT22;41083;52.932;6.674;2022-10-16T14:34:24;15.10;99.90
55213;DHT22;41083;52.932;6.674;2022-10-16T14:36:50;15.00;99.90
55213;DHT22;41083;52.932;6.674;2022-10-16T14:39:21;15.00;99.90
55213;DHT22;41083;52.932;6.674;2022-10-16T14:41:49;15.00;99.90
55213;DHT22;41083;52.932;6.674;2022-10-16T14:44:17;15.00;99.90
55213;DHT22;41083;52.932;6.674;2022-10-16T14:46:43;14.90;99.90
55213;DHT22;41083;52.932;6.674;2022-10-16T14:51:36;15.00;99.90
55213;DHT22;41083;52.932;6.674;2022-10-16T14:54:01;15.00;99.90
55213;DHT22;41083;52.932;6.674;2022-10-16T14:56:36;14.90;99.90
55213;DHT22;41083;52.932;6.674;2022-10-16T14:59:14;14.90;99.90
55213;DHT22;41083;52.932;6.674;2022-10-16T15:01:43;15.00;99.90
55213;DHT22;41083;52.932;6.674;2022-10-16T15:04:11;14.90;99.90
55213;DHT22;41083;52.932;6.674;2022-10-16T15:06:37;14.90;99.90
55213;DHT22;41083;52.932;6.674;2022-10-16T15:09:03;14.90;99.90
55213;DHT22;41083;52.932;6.674;2022-10-16T15:11:29;14.90;99.90
55213;DHT22;41083;52.932;6.674;2022-10-16T15:13:57;14.90;99.90
55213;DHT22;41083;52.932;6.674;2022-10-16T15:16:22;14.90;99.90
55213;DHT22;41083;52.932;6.674;2022-10-16T15:18:48;14.90;99.90
55213;DHT22;41083;52.932;6.674;2022-10-16T15:21:27;14.90;99.90
55213;DHT22;41083;52.932;6.674;2022-10-16T15:23:53;14.90;99.90
55213;DHT22;41083;52.932;6.674;2022-10-16T15:26:19;14.80;99.90
55213;DHT22;41083;52.932;6.674;2022-10-16T15:28:44;14.80;99.90
55213;DHT22;41083;52.932;6.674;2022-10-16T15:31:10;14.70;99.90
55213;DHT22;41083;52.932;6.674;2022-10-16T15:33:35;14.70;99.90
55213;DHT22;41083;52.932;6.674;2022-10-16T15:36:02;14.70;99.90
55213;DHT22;41083;52.932;6.674;2022-10-16T15:38:28;14.70;99.90
55213;DHT22;41083;52.932;6.674;2022-10-16T15:40:55;14.60;99.90
55213;DHT22;41083;52.932;6.674;2022-10-16T15:43:21;14.60;99.90
55213;DHT22;41083;52.932;6.674;2022-10-16T15:46:05;14.60;99.90
55213;DHT22;41083;52.932;6.674;2022-10-16T15:48:32;14.50;99.90
55213;DHT22;41083;52.932;6.674;2022-10-16T15:50:58;14.50;99.90
55213;DHT22;41083;52.932;6.674;2022-10-16T15:53:25;14.40;99.90
55213;DHT22;41083;52.932;6.674;2022-10-16T15:55:51;14.40;99.90
55213;DHT22;41083;52.932;6.674;2022-10-16T15:58:17;14.40;99.90
55213;DHT22;41083;52.932;6.674;2022-10-16T16:00:43;14.30;99.90
55213;DHT22;41083;52.932;6.674;2022-10-16T16:03:08;14.30;99.90
55213;DHT22;41083;52.932;6.674;2022-10-16T16:05:38;14.30;99.90
55213;DHT22;41083;52.932;6.674;2022-10-16T16:08:04;14.20;99.90
55213;DHT22;41083;52.932;6.674;2022-10-16T16:10:29;14.20;99.90
55213;DHT22;41083;52.932;6.674;2022-10-16T16:12:55;14.20;99.90
55213;DHT22;41083;52.932;6.674;2022-10-16T16:15:21;14.10;99.90
55213;DHT22;41083;52.932;6.674;2022-10-16T16:17:48;14.10;99.90
55213;DHT22;41083;52.932;6.674;2022-10-16T16:20:14;14.10;99.90
55213;DHT22;41083;52.932;6.674;2022-10-16T16:22:40;14.10;99.90
55213;DHT22;41083;52.932;6.674;2022-10-16T16:25:06;14.00;99.90
55213;DHT22;41083;52.932;6.674;2022-10-16T16:27:32;14.00;99.90
55213;DHT22;41083;52.932;6.674;2022-10-16T16:30:01;13.90;99.90
55213;DHT22;41083;52.932;6.674;2022-10-16T16:32:28;13.90;99.90
55213;DHT22;41083;52.932;6.674;2022-10-16T16:34:54;13.90;99.90
55213;DHT22;41083;52.932;6.674;2022-10-16T16:37:20;13.80;99.90
55213;DHT22;41083;52.932;6.674;2022-10-16T16:39:45;13.80;99.90
55213;DHT22;41083;52.932;6.674;2022-10-16T16:42:11;13.70;99.90
55213;DHT22;41083;52.932;6.674;2022-10-16T16:44:36;13.70;99.90
55213;DHT22;41083;52.932;6.674;2022-10-16T16:47:03;13.70;99.90
55213;DHT22;41083;52.932;6.674;2022-10-16T16:49:29;13.60;99.90
55213;DHT22;41083;52.932;6.674;2022-10-16T16:51:54;13.60;99.90
55213;DHT22;41083;52.932;6.674;2022-10-16T16:54:20;13.40;99.90
55213;DHT22;41083;52.932;6.674;2022-10-16T16:56:46;13.50;99.90
55213;DHT22;41083;52.932;6.674;2022-10-16T16:59:17;13.50;99.90
55213;DHT22;41083;52.932;6.674;2022-10-16T17:01:45;13.50;99.90
55213;DHT22;41083;52.932;6.674;2022-10-16T17:04:11;13.40;99.90